Lily Lake, Illinois
Current Conditions -  °F | °C
As of 7:59 PM on Monday 24 Nov 2014 (Local Time) from KDPA Reporting Station
Overcast Overcast  
Wind Chill: 12°   Ceiling: 1400
Heat Index: 26°   Visibility: 7mi
Dew Point: 21°   Wind: 22mph
Humidity: 81%   Direction: 260°W
Pressure: 29.72"   Gusts: 30mph
Location:  41.9502°N, 88.389°W
Report Text: KDPA 250159Z 26019G26KT 7SM OVC014 M03/M06 A2972 RMK AO2 PK WND 26026/0157 T10331061
Loading
Personal Weather Stations






























Interactive Weather Map New forecast layout! Learn more

10-Day Weather Forecast

Advertisements
Track Severe Weather on mobile